Time;durP1;ratioP1;P1;durP2;ratioP2;P2;SDS_P1;SDS_P2;PMS_P1;PMS_P2;Temp;Humidity;BMP_temperature;BMP_pressure;BME280_temperature;BME280_humidity;BME280_pressure;Samples;Min_cycle;Max_cycle;Signal;HPM_P1;HPM_P2
2023/04/10 00:00:01;;;;;;;4.23;3.20;;;12.30;69.00;;;;;;5090036;28;20223;-61
2023/04/10 00:02:30;;;;;;;3.47;3.17;;;12.30;69.00;;;;;;5092063;28;20207;-61
2023/04/10 00:04:59;;;;;;;4.37;2.90;;;12.30;69.20;;;;;;5089600;28;20289;-61
2023/04/10 00:07:26;;;;;;;3.17;2.87;;;12.20;69.50;;;;;;5092243;28;20219;-61
2023/04/10 00:09:53;;;;;;;4.27;3.43;;;12.20;69.70;;;;;;5088518;28;20254;-60
2023/04/10 00:12:20;;;;;;;4.90;2.93;;;12.20;69.70;;;;;;5090509;28;20211;-61
2023/04/10 00:14:47;;;;;;;3.00;2.57;;;12.20;69.90;;;;;;5091362;28;20248;-61
2023/04/10 00:17:14;;;;;;;3.40;3.10;;;12.20;70.20;;;;;;5093184;28;20584;-61
2023/04/10 00:19:41;;;;;;;3.83;3.13;;;12.20;70.60;;;;;;5093344;28;20511;-61
2023/04/10 00:22:08;;;;;;;3.13;2.83;;;12.20;71.00;;;;;;5092553;28;20258;-61
2023/04/10 00:24:35;;;;;;;4.63;3.10;;;12.10;71.40;;;;;;5092324;28;20845;-61
2023/04/10 00:27:02;;;;;;;3.30;2.97;;;12.10;71.30;;;;;;5091459;28;20210;-61
2023/04/10 00:29:29;;;;;;;5.43;3.43;;;12.10;71.60;;;;;;5084106;28;20310;-61
2023/04/10 00:31:56;;;;;;;3.67;2.90;;;12.10;71.70;;;;;;5087779;28;20224;-61
2023/04/10 00:34:24;;;;;;;3.93;3.10;;;12.00;71.50;;;;;;5092633;28;20220;-61
2023/04/10 00:36:51;;;;;;;3.60;2.83;;;12.00;71.30;;;;;;5089463;28;20207;-60
2023/04/10 00:39:18;;;;;;;3.90;3.10;;;12.00;71.00;;;;;;5092679;28;20538;-61
2023/04/10 00:41:46;;;;;;;4.37;3.33;;;12.00;71.20;;;;;;5083405;28;20592;-61
2023/04/10 00:44:12;;;;;;;3.80;3.50;;;11.90;71.20;;;;;;5087313;28;20214;-61
2023/04/10 00:46:40;;;;;;;5.07;3.87;;;11.90;71.20;;;;;;5092290;28;20201;-61
2023/04/10 00:49:08;;;;;;;3.60;3.10;;;11.90;71.30;;;;;;5091991;28;20216;-61
2023/04/10 00:51:36;;;;;;;3.50;3.20;;;11.90;71.60;;;;;;5090275;28;20239;-61
2023/04/10 00:54:03;;;;;;;3.00;2.70;;;11.80;71.70;;;;;;5092420;28;20229;-61
2023/04/10 00:56:31;;;;;;;4.27;3.20;;;11.80;71.70;;;;;;5090975;28;20198;-61
2023/04/10 00:58:58;;;;;;;4.57;3.50;;;11.70;71.80;;;;;;5085407;28;20307;-61
2023/04/10 01:01:25;;;;;;;6.57;3.70;;;11.70;72.20;;;;;;5088834;28;20201;-61
2023/04/10 01:03:53;;;;;;;4.47;3.33;;;11.70;72.40;;;;;;5090589;28;20204;-61
2023/04/10 01:06:40;;;;;;;4.03;2.90;;;11.70;72.80;;;;;;5090620;28;20274;-61
2023/04/10 01:09:30;;;;;;;10.60;3.17;;;11.60;73.00;;;;;;5091102;28;20226;-62
2023/04/10 01:12:22;;;;;;;5.33;3.40;;;11.60;73.00;;;;;;5090744;28;20199;-61
2023/04/10 01:14:57;;;;;;;4.03;3.27;;;11.60;72.90;;;;;;5090902;28;20537;-61
2023/04/10 01:17:46;;;;;;;3.77;3.30;;;11.60;73.10;;;;;;5090420;28;20232;-61
2023/04/10 01:20:22;;;;;;;3.80;3.40;;;11.60;73.70;;;;;;5091386;28;20224;-61
2023/04/10 01:23:04;;;;;;;4.73;3.47;;;11.60;74.00;;;;;;5087470;28;20242;-61
2023/04/10 01:25:38;;;;;;;4.43;3.27;;;11.50;74.30;;;;;;5085350;28;20316;-61
2023/04/10 01:28:18;;;;;;;3.97;2.90;;;11.50;74.70;;;;;;5094986;28;20616;-61
2023/04/10 01:30:47;;;;;;;4.00;3.13;;;11.40;74.80;;;;;;5093108;28;20269;-61
2023/04/10 01:33:20;;;;;;;3.70;3.23;;;11.40;74.90;;;;;;5094648;28;20231;-60
2023/04/10 01:35:52;;;;;;;3.70;3.10;;;11.30;75.10;;;;;;5089520;28;20245;-61
2023/04/10 01:38:22;;;;;;;4.03;2.90;;;11.30;76.00;;;;;;5095702;28;20208;-61
2023/04/10 01:40:52;;;;;;;3.53;3.20;;;11.20;75.50;;;;;;5092104;28;20631;-60
2023/04/10 01:43:30;;;;;;;3.93;2.83;;;11.20;75.80;;;;;;5093915;28;20557;-61
2023/04/10 01:45:59;;;;;;;4.47;3.57;;;11.10;75.90;;;;;;5094153;28;20216;-61
2023/04/10 01:48:27;;;;;;;7.23;3.50;;;11.10;76.20;;;;;;5094727;28;20227;-61
2023/04/10 01:50:56;;;;;;;4.97;3.37;;;11.00;76.20;;;;;;5094743;28;20225;-61
2023/04/10 01:53:25;;;;;;;6.17;3.90;;;11.00;76.10;;;;;;5107818;28;20733;-61
2023/04/10 01:55:52;;;;;;;4.17;3.50;;;11.00;76.00;;;;;;5095371;28;20614;-61
2023/04/10 01:58:20;;;;;;;4.40;2.90;;;11.00;75.80;;;;;;5094576;28;20205;-61
2023/04/10 02:00:47;;;;;;;3.20;2.90;;;10.90;75.60;;;;;;5093234;28;20250;-61
2023/04/10 02:03:15;;;;;;;4.47;3.90;;;10.90;75.50;;;;;;5088843;28;20748;-62
2023/04/10 02:06:13;;;;;;;5.00;3.40;;;10.80;75.50;;;;;;5092270;28;20200;-62
2023/04/10 02:08:47;;;;;;;4.13;3.73;;;10.70;75.70;;;;;;5093032;28;20196;-60
2023/04/10 02:11:36;;;;;;;4.97;3.70;;;10.60;75.90;;;;;;5094979;28;20218;-61
2023/04/10 02:14:07;;;;;;;5.80;3.57;;;10.60;76.20;;;;;;5092409;28;20224;-61
2023/04/10 02:16:37;;;;;;;5.50;3.70;;;10.50;76.50;;;;;;5094353;28;20295;-61
2023/04/10 02:19:05;;;;;;;8.07;3.83;;;10.40;76.70;;;;;;5094184;28;20448;-61
2023/04/10 02:21:33;;;;;;;4.83;3.70;;;10.40;76.80;;;;;;5094490;28;20624;-61
2023/04/10 02:24:00;;;;;;;3.83;3.43;;;10.40;77.10;;;;;;5091764;28;20223;-61
2023/04/10 02:26:28;;;;;;;7.27;4.53;;;10.40;77.20;;;;;;5091582;28;20199;-61
2023/04/10 02:28:55;;;;;;;3.77;3.40;;;10.40;77.30;;;;;;5092030;28;20204;-61
2023/04/10 02:31:23;;;;;;;5.13;3.53;;;10.30;77.40;;;;;;5093777;28;20195;-61
2023/04/10 02:33:50;;;;;;;4.50;3.60;;;10.30;77.40;;;;;;5085728;28;20210;-61
2023/04/10 02:36:18;;;;;;;5.23;3.67;;;10.20;77.30;;;;;;5091342;28;20206;-60
2023/04/10 02:38:45;;;;;;;4.17;3.37;;;10.20;77.30;;;;;;5088989;28;20562;-61
2023/04/10 02:41:12;;;;;;;3.90;3.30;;;10.20;77.40;;;;;;5094639;28;20204;-61
2023/04/10 02:43:40;;;;;;;3.83;3.43;;;10.10;77.50;;;;;;5094052;28;20712;-61
2023/04/10 02:46:07;;;;;;;4.30;3.30;;;10.10;77.70;;;;;;5087793;28;20578;-61
2023/04/10 02:48:37;;;;;;;4.50;3.87;;;10.10;77.90;;;;;;5094420;28;20215;-60
2023/04/10 02:51:05;;;;;;;3.93;3.60;;;10.10;78.10;;;;;;5092815;28;20259;-61
2023/04/10 02:53:33;;;;;;;7.13;4.20;;;10.10;78.30;;;;;;5093358;28;20228;-61
2023/04/10 02:56:01;;;;;;;5.67;3.20;;;10.10;78.40;;;;;;5092098;28;20201;-61
2023/04/10 02:58:29;;;;;;;5.97;3.83;;;10.10;78.60;;;;;;5094042;28;20205;-61
2023/04/10 03:00:57;;;;;;;12.97;4.30;;;10.10;78.60;;;;;;5094380;28;20296;-61
2023/04/10 03:03:53;;;;;;;7.00;3.87;;;10.00;78.60;;;;;;5087455;28;20661;-60
2023/04/10 03:06:27;;;;;;;3.33;3.03;;;10.00;78.80;;;;;;5093259;28;20203;-61
2023/04/10 03:08:56;;;;;;;7.83;4.00;;;10.00;78.80;;;;;;5093826;28;20281;-61
2023/04/10 03:11:23;;;;;;;4.87;4.10;;;10.00;79.00;;;;;;5093910;28;20288;-61
2023/04/10 03:13:50;;;;;;;4.17;3.30;;;10.00;79.20;;;;;;5093020;28;20193;-61
2023/04/10 03:16:17;;;;;;;4.43;3.70;;;10.00;79.30;;;;;;5094876;28;20264;-61
2023/04/10 03:18:45;;;;;;;4.03;3.67;;;10.00;79.50;;;;;;5092327;28;20201;-60
2023/04/10 03:21:13;;;;;;;5.23;3.40;;;9.90;79.60;;;;;;5082430;28;20201;-61
2023/04/10 03:23:41;;;;;;;4.37;3.53;;;9.90;79.90;;;;;;5093669;28;20229;-61
2023/04/10 03:26:09;;;;;;;7.90;3.60;;;9.90;80.00;;;;;;5093080;28;20203;-61
2023/04/10 03:28:38;;;;;;;3.90;3.50;;;9.90;80.20;;;;;;5093462;28;20611;-61
2023/04/10 03:31:08;;;;;;;4.07;3.67;;;9.80;80.50;;;;;;5090102;28;20682;-61
2023/04/10 03:33:35;;;;;;;6.33;4.20;;;9.80;80.60;;;;;;5092123;28;20202;-60
2023/04/10 03:36:03;;;;;;;7.13;4.27;;;9.80;80.80;;;;;;5092781;28;20215;-61
2023/04/10 03:38:32;;;;;;;5.90;3.80;;;9.80;81.00;;;;;;5084759;28;20232;-61
2023/04/10 03:40:59;;;;;;;3.30;3.00;;;9.80;81.10;;;;;;5093191;28;20289;-61
2023/04/10 03:43:30;;;;;;;7.43;4.07;;;9.80;81.30;;;;;;5086877;28;20628;-61
2023/04/10 03:45:58;;;;;;;4.70;3.40;;;9.80;81.60;;;;;;5091253;28;20200;-61
2023/04/10 03:48:27;;;;;;;4.40;3.33;;;9.80;81.80;;;;;;5090291;28;20217;-61
2023/04/10 03:50:54;;;;;;;3.80;3.37;;;9.80;81.90;;;;;;5099651;28;20291;-61
2023/04/10 03:53:22;;;;;;;5.60;4.10;;;9.80;82.00;;;;;;5084127;28;20235;-61
2023/04/10 03:55:51;;;;;;;4.00;3.60;;;9.90;82.20;;;;;;5092710;28;20191;-61
2023/04/10 03:58:20;;;;;;;5.80;3.50;;;9.90;82.30;;;;;;5088998;28;20215;-61
2023/04/10 04:00:47;;;;;;;4.20;3.47;;;9.90;82.30;;;;;;5090582;28;20292;-61
2023/04/10 04:03:32;;;;;;;6.13;3.70;;;9.90;82.30;;;;;;5084802;28;20211;-61
2023/04/10 04:05:59;;;;;;;4.30;3.90;;;9.90;82.40;;;;;;5094163;28;20538;-61
2023/04/10 04:08:37;;;;;;;3.87;3.53;;;9.90;82.40;;;;;;5083026;28;20239;-61
2023/04/10 04:11:23;;;;;;;4.00;3.60;;;9.80;82.20;;;;;;5091635;28;20364;-61
2023/04/10 04:14:10;;;;;;;8.23;4.90;;;9.80;82.20;;;;;;5092379;28;20714;-60
2023/04/10 04:16:40;;;;;;;4.60;4.10;;;9.70;82.10;;;;;;5090300;28;20281;-61
2023/04/10 04:19:27;;;;;;;5.33;4.00;;;9.70;82.10;;;;;;5092342;28;20296;-62
2023/04/10 04:22:27;;;;;;;6.27;4.27;;;9.70;82.10;;;;;;5064290;28;20212;-61
2023/04/10 04:25:10;;;;;;;4.70;3.97;;;9.60;82.10;;;;;;5091944;28;20301;-61
2023/04/10 04:27:56;;;;;;;6.37;3.90;;;9.60;82.10;;;;;;5091193;28;20218;-61
2023/04/10 04:30:32;;;;;;;6.10;4.60;;;9.50;82.10;;;;;;5089900;28;20261;-60
2023/04/10 04:33:12;;;;;;;5.30;4.37;;;9.50;82.10;;;;;;5091928;28;20645;-60
2023/04/10 04:35:56;;;;;;;9.77;4.50;;;9.40;82.20;;;;;;5090458;28;20237;-60
2023/04/10 04:38:41;;;;;;;5.67;4.47;;;9.30;82.30;;;;;;5090582;28;20200;-60
2023/04/10 04:41:29;;;;;;;5.90;4.23;;;9.30;82.50;;;;;;5089236;28;20206;-60
2023/04/10 04:44:17;;;;;;;5.90;4.10;;;9.20;82.60;;;;;;5090975;28;20207;-61
2023/04/10 04:46:44;;;;;;;7.03;4.83;;;9.20;82.70;;;;;;5091251;28;20286;-61
2023/04/10 04:49:20;;;;;;;6.23;4.10;;;9.20;83.00;;;;;;5093562;28;20263;-61
2023/04/10 04:52:08;;;;;;;7.50;4.67;;;9.10;83.00;;;;;;5087497;28;20246;-61
2023/04/10 04:54:44;;;;;;;5.30;4.07;;;9.10;83.20;;;;;;5092109;28;20222;-60
2023/04/10 04:57:41;;;;;;;6.43;4.47;;;9.10;83.30;;;;;;5085795;28;20207;-60
2023/04/10 05:00:24;;;;;;;4.93;4.27;;;9.10;83.40;;;;;;5094094;28;20217;-61
2023/04/10 05:02:51;;;;;;;5.80;4.00;;;9.00;83.40;;;;;;5096249;28;20199;-60
2023/04/10 05:05:34;;;;;;;4.83;4.00;;;9.00;83.40;;;;;;5085288;28;20539;-61
2023/04/10 05:08:17;;;;;;;6.57;4.23;;;9.00;83.60;;;;;;5094626;28;20264;-60
2023/04/10 05:11:19;;;;;;;4.33;3.93;;;9.00;83.70;;;;;;5039523;28;20639;-60
2023/04/10 05:14:06;;;;;;;6.13;4.60;;;9.00;83.70;;;;;;5090104;28;20217;-60
2023/04/10 05:16:52;;;;;;;5.00;4.50;;;9.00;83.90;;;;;;5095094;28;20661;-60
2023/04/10 05:19:36;;;;;;;5.97;4.63;;;9.00;83.90;;;;;;5093943;28;20248;-61
2023/04/10 05:22:21;;;;;;;5.97;4.03;;;9.10;84.20;;;;;;5093574;28;20207;-61
2023/04/10 05:24:54;;;;;;;8.23;4.50;;;9.10;84.20;;;;;;5094209;28;20199;-61
2023/04/10 05:27:27;;;;;;;5.73;5.07;;;9.10;84.10;;;;;;5095708;28;20203;-61
2023/04/10 05:30:20;;;;;;;6.97;5.17;;;9.10;84.10;;;;;;5078293;28;20314;-60
2023/04/10 05:33:23;;;;;;;6.87;4.23;;;9.20;84.10;;;;;;5079510;28;20204;-61
2023/04/10 05:36:12;;;;;;;4.13;3.53;;;9.20;84.10;;;;;;5096161;28;20713;-60
2023/04/10 05:39:02;;;;;;;5.60;4.07;;;9.20;84.20;;;;;;5088919;28;20203;-61
2023/04/10 05:41:38;;;;;;;5.13;3.90;;;9.20;84.10;;;;;;5094023;28;20595;-61
2023/04/10 05:44:25;;;;;;;6.90;4.50;;;9.20;84.00;;;;;;5094805;28;20210;-60
2023/04/10 05:47:24;;;;;;;6.20;4.70;;;9.20;83.90;;;;;;5092458;28;20203;-61
2023/04/10 05:50:04;;;;;;;5.90;4.93;;;9.20;84.00;;;;;;5091737;28;20241;-60
2023/04/10 05:53:03;;;;;;;6.17;3.90;;;9.20;84.00;;;;;;5084572;28;20665;-61
2023/04/10 05:56:03;;;;;;;8.50;5.00;;;9.30;83.90;;;;;;5069510;28;20210;-61
2023/04/10 05:58:55;;;;;;;8.87;4.87;;;9.30;84.00;;;;;;5095535;28;20702;-61
2023/04/10 06:01:41;;;;;;;12.67;4.73;;;9.30;84.20;;;;;;5094617;28;20205;-61
2023/04/10 06:04:08;;;;;;;7.00;3.90;;;9.40;84.30;;;;;;5092887;28;20212;-60
2023/04/10 06:06:37;;;;;;;5.93;4.80;;;9.40;84.30;;;;;;5084486;28;20208;-60
2023/04/10 06:09:04;;;;;;;4.93;4.27;;;9.40;84.40;;;;;;5094270;28;20248;-61
2023/04/10 06:11:31;;;;;;;6.20;4.83;;;9.40;84.50;;;;;;5094599;28;20676;-60
2023/04/10 06:13:58;;;;;;;8.00;4.77;;;9.50;84.60;;;;;;5093461;28;20195;-61
2023/04/10 06:16:32;;;;;;;6.00;4.50;;;9.50;84.00;;;;;;5094170;28;20639;-61
2023/04/10 06:18:59;;;;;;;9.07;4.30;;;9.60;83.50;;;;;;5090675;28;20679;-61
2023/04/10 06:21:26;;;;;;;5.43;4.20;;;9.60;83.30;;;;;;5094263;28;20788;-61
2023/04/10 06:23:53;;;;;;;6.00;4.47;;;9.70;83.20;;;;;;5093869;28;20202;-61
2023/04/10 06:26:21;;;;;;;5.03;4.10;;;9.90;83.00;;;;;;5092719;28;20711;-61
2023/04/10 06:28:48;;;;;;;7.03;4.27;;;10.10;83.10;;;;;;5107182;27;20265;-61
2023/04/10 06:31:18;;;;;;;7.73;4.50;;;10.30;82.70;;;;;;5092343;28;20232;-60
2023/04/10 06:33:45;;;;;;;5.43;4.77;;;10.50;82.30;;;;;;5093344;28;20191;-61
2023/04/10 06:36:12;;;;;;;4.63;4.13;;;10.70;81.50;;;;;;5094613;28;20209;-61
2023/04/10 06:38:52;;;;;;;7.33;4.37;;;10.90;81.20;;;;;;5090598;28;20268;-60
2023/04/10 06:41:19;;;;;;;6.80;4.53;;;11.10;79.40;;;;;;5089869;28;20208;-61
2023/04/10 06:43:52;;;;;;;5.37;4.13;;;11.30;78.40;;;;;;5085330;28;20625;-61
2023/04/10 06:46:19;;;;;;;4.77;4.23;;;11.40;77.40;;;;;;5092873;28;20216;-61
2023/04/10 06:48:46;;;;;;;7.07;4.07;;;11.50;77.50;;;;;;5094074;28;20208;-61
2023/04/10 06:51:14;;;;;;;6.03;4.43;;;11.70;77.90;;;;;;5088918;28;20243;-61
2023/04/10 06:53:41;;;;;;;6.87;3.80;;;11.80;76.20;;;;;;5092019;28;20207;-61
2023/04/10 06:56:08;;;;;;;4.80;4.07;;;11.90;75.40;;;;;;5091168;28;20329;-61
2023/04/10 06:58:35;;;;;;;5.37;4.27;;;12.00;76.10;;;;;;5092828;28;20286;-61
2023/04/10 07:01:03;;;;;;;4.77;4.23;;;12.10;75.60;;;;;;5091868;28;20228;-61
2023/04/10 07:03:31;;;;;;;5.23;4.17;;;12.20;74.90;;;;;;5090328;28;20250;-61
2023/04/10 07:06:00;;;;;;;4.90;3.97;;;12.30;75.60;;;;;;5093910;28;20272;-61
2023/04/10 07:08:27;;;;;;;4.63;3.87;;;12.30;75.50;;;;;;5091136;28;20211;-61
2023/04/10 07:10:55;;;;;;;5.43;4.07;;;12.40;75.40;;;;;;5091685;28;20295;-61
2023/04/10 07:13:26;;;;;;;7.07;3.80;;;12.60;74.70;;;;;;5091579;28;20202;-61
2023/04/10 07:15:53;;;;;;;6.07;4.67;;;12.70;74.00;;;;;;5092594;28;20193;-61
2023/04/10 07:18:20;;;;;;;5.13;4.00;;;12.80;74.20;;;;;;5090294;28;20197;-61
2023/04/10 07:20:49;;;;;;;7.53;4.53;;;12.90;73.00;;;;;;5092582;28;20235;-61
2023/04/10 07:23:18;;;;;;;6.37;4.47;;;13.00;72.40;;;;;;5088588;28;20209;-61
2023/04/10 07:25:45;;;;;;;6.10;4.50;;;13.00;72.80;;;;;;5090812;28;20723;-61
2023/04/10 07:28:12;;;;;;;5.30;4.73;;;13.20;73.60;;;;;;5092393;28;20592;-61
2023/04/10 07:30:39;;;;;;;5.43;4.30;;;13.30;73.10;;;;;;5090990;28;20213;-61
2023/04/10 07:33:06;;;;;;;5.53;3.83;;;13.40;73.40;;;;;;5092356;28;20232;-61
2023/04/10 07:35:34;;;;;;;5.53;3.70;;;13.60;73.00;;;;;;5093226;28;20220;-61
2023/04/10 07:38:01;;;;;;;5.87;4.10;;;13.70;71.60;;;;;;5092814;28;20224;-61
2023/04/10 07:40:28;;;;;;;4.83;3.40;;;13.90;70.70;;;;;;5093311;28;20653;-61
2023/04/10 07:42:55;;;;;;;8.23;3.73;;;14.00;69.50;;;;;;5090280;28;20300;-61
2023/04/10 07:45:30;;;;;;;5.30;3.27;;;14.10;70.90;;;;;;5060635;28;20579;-60
2023/04/10 07:47:58;;;;;;;6.13;3.17;;;14.30;69.50;;;;;;5055846;28;20645;-60
2023/04/10 07:50:25;;;;;;;3.63;2.77;;;14.50;66.50;;;;;;5047919;28;20199;-60
2023/04/10 07:52:52;;;;;;;4.50;3.10;;;14.60;65.30;;;;;;5054609;28;20237;-62
2023/04/10 07:55:19;;;;;;;4.80;3.23;;;14.70;65.60;;;;;;5051526;28;20195;-62
2023/04/10 07:57:46;;;;;;;4.27;2.93;;;14.80;65.70;;;;;;5056720;28;20658;-63
2023/04/10 08:00:13;;;;;;;4.10;2.97;;;14.80;65.70;;;;;;5049767;28;20198;-62
2023/04/10 08:02:41;;;;;;;3.87;3.27;;;15.00;65.00;;;;;;5049394;28;20195;-63
2023/04/10 08:05:09;;;;;;;3.97;3.27;;;15.20;64.70;;;;;;5049254;28;20252;-62
2023/04/10 08:07:37;;;;;;;8.63;3.23;;;15.40;63.70;;;;;;5052741;28;20256;-63
2023/04/10 08:10:04;;;;;;;3.30;3.00;;;15.50;62.10;;;;;;5056142;28;20589;-62
2023/04/10 08:12:33;;;;;;;5.77;3.73;;;15.50;61.50;;;;;;5047707;28;20607;-62
2023/04/10 08:15:00;;;;;;;5.60;3.73;;;15.60;61.40;;;;;;5055501;28;20632;-62
2023/04/10 08:17:27;;;;;;;8.03;3.70;;;15.60;63.50;;;;;;5054988;28;20200;-62
2023/04/10 08:19:55;;;;;;;4.77;3.60;;;15.80;63.60;;;;;;5054369;28;20199;-62
2023/04/10 08:22:22;;;;;;;4.50;3.50;;;15.90;63.70;;;;;;5054721;28;20302;-62
2023/04/10 08:24:49;;;;;;;3.90;3.50;;;16.10;61.00;;;;;;5036940;28;20341;-63
2023/04/10 08:27:16;;;;;;;6.00;3.43;;;16.20;61.10;;;;;;5052602;28;20219;-63
2023/04/10 08:29:43;;;;;;;5.57;3.60;;;16.30;61.90;;;;;;5051043;28;20218;-62
2023/04/10 08:32:10;;;;;;;5.30;4.03;;;16.40;61.50;;;;;;5048652;28;20473;-62
2023/04/10 08:34:37;;;;;;;6.57;4.27;;;16.50;60.20;;;;;;5053668;28;20282;-63
2023/04/10 08:37:05;;;;;;;4.27;3.73;;;16.40;60.60;;;;;;5053740;28;20669;-63
2023/04/10 08:39:35;;;;;;;6.77;3.97;;;16.50;62.00;;;;;;5057206;28;20203;-62
2023/04/10 08:42:02;;;;;;;5.53;3.73;;;16.60;61.70;;;;;;5051741;28;20553;-62
2023/04/10 08:44:29;;;;;;;4.67;3.53;;;16.70;61.80;;;;;;5051067;28;20242;-62
2023/04/10 08:47:01;;;;;;;4.53;2.90;;;16.90;61.60;;;;;;5055812;28;20201;-62
2023/04/10 08:49:28;;;;;;;4.17;3.07;;;17.00;58.80;;;;;;5051022;28;20258;-62
2023/04/10 08:51:56;;;;;;;6.23;2.90;;;17.10;56.90;;;;;;5051577;28;20188;-62
2023/04/10 08:54:32;;;;;;;4.53;2.70;;;17.20;56.10;;;;;;5053045;28;20206;-62
2023/04/10 08:57:00;;;;;;;5.00;3.57;;;17.20;56.90;;;;;;5040006;28;20202;-62
2023/04/10 08:59:29;;;;;;;4.80;3.57;;;17.20;57.60;;;;;;5035612;28;20195;-63
2023/04/10 09:01:57;;;;;;;4.87;2.90;;;17.30;55.10;;;;;;5038782;28;20627;-62
2023/04/10 09:04:25;;;;;;;4.13;3.27;;;17.20;55.10;;;;;;5037520;28;20229;-62
2023/04/10 09:06:52;;;;;;;3.83;2.80;;;17.20;55.10;;;;;;5038703;28;20201;-62
2023/04/10 09:09:20;;;;;;;6.77;3.30;;;17.20;55.70;;;;;;5039604;28;20573;-62
2023/04/10 09:11:55;;;;;;;3.20;2.40;;;17.30;56.40;;;;;;5038219;28;20275;-62
2023/04/10 09:14:24;;;;;;;4.27;2.80;;;17.50;55.40;;;;;;5039301;28;20207;-62
2023/04/10 09:16:53;;;;;;;7.73;3.60;;;17.60;55.30;;;;;;5040992;28;20210;-62
2023/04/10 09:19:30;;;;;;;3.03;2.53;;;17.80;55.40;;;;;;5042881;28;20203;-62
2023/04/10 09:21:58;;;;;;;3.97;2.57;;;18.00;52.50;;;;;;5039663;28;20202;-62
2023/04/10 09:24:25;;;;;;;3.93;3.23;;;18.10;51.10;;;;;;5038444;28;20304;-62
2023/04/10 09:26:53;;;;;;;5.83;2.70;;;18.10;51.10;;;;;;5036356;28;20264;-62
2023/04/10 09:29:20;;;;;;;3.17;2.33;;;18.00;53.10;;;;;;5038608;28;20241;-62
2023/04/10 09:31:49;;;;;;;3.77;2.20;;;18.00;50.90;;;;;;5040166;28;20204;-62
2023/04/10 09:34:17;;;;;;;4.20;2.43;;;17.90;51.20;;;;;;5033624;28;20269;-62
2023/04/10 09:36:52;;;;;;;3.33;2.57;;;17.90;50.30;;;;;;5035885;28;20197;-63
2023/04/10 09:39:19;;;;;;;4.63;2.50;;;17.90;52.60;;;;;;5039916;28;20204;-62
2023/04/10 09:41:51;;;;;;;5.97;2.53;;;18.00;52.40;;;;;;5040179;28;20282;-62
2023/04/10 09:44:32;;;;;;;5.40;2.67;;;18.10;52.90;;;;;;5036700;28;20687;-62
2023/04/10 09:47:18;;;;;;;5.40;3.27;;;18.30;51.20;;;;;;5042428;28;20232;-62
2023/04/10 09:49:51;;;;;;;4.43;3.13;;;18.40;52.80;;;;;;5039610;28;20284;-62
2023/04/10 09:52:26;;;;;;;4.90;2.90;;;18.40;51.40;;;;;;5035605;28;20208;-62
2023/04/10 09:54:55;;;;;;;3.77;3.03;;;18.50;49.40;;;;;;5038219;28;20509;-62
2023/04/10 09:57:23;;;;;;;4.50;3.40;;;18.50;50.10;;;;;;5037023;28;20229;-62
2023/04/10 09:59:56;;;;;;;3.83;3.17;;;18.50;51.70;;;;;;5040735;28;20210;-61
2023/04/10 10:02:24;;;;;;;4.97;3.80;;;18.70;51.20;;;;;;5041027;28;20214;-60
2023/04/10 10:04:52;;;;;;;2.83;2.53;;;18.90;52.10;;;;;;5034875;28;20229;-63
2023/04/10 10:07:21;;;;;;;4.03;3.17;;;19.00;49.00;;;;;;5040529;28;20225;-63
2023/04/10 10:09:50;;;;;;;3.80;3.23;;;19.00;50.50;;;;;;5032732;28;20222;-63
2023/04/10 10:12:23;;;;;;;4.40;2.70;;;19.00;50.70;;;;;;5039407;28;20197;-63
2023/04/10 10:14:59;;;;;;;3.50;3.07;;;19.20;50.90;;;;;;5034472;28;20206;-63
2023/04/10 10:17:49;;;;;;;3.63;2.97;;;19.30;50.60;;;;;;5040102;28;20201;-63
2023/04/10 10:20:18;;;;;;;5.07;3.40;;;19.50;48.30;;;;;;5024471;28;20352;-63
2023/04/10 10:22:46;;;;;;;3.67;3.10;;;19.40;46.40;;;;;;5038108;28;20241;-63
2023/04/10 10:25:13;;;;;;;3.50;3.20;;;19.30;47.90;;;;;;5037153;28;20222;-63
2023/04/10 10:27:41;;;;;;;4.13;3.23;;;19.30;47.60;;;;;;5035841;28;20267;-63
2023/04/10 10:30:11;;;;;;;3.70;3.30;;;19.30;48.90;;;;;;5038997;28;20205;-63
2023/04/10 10:32:55;;;;;;;5.90;3.23;;;19.30;49.70;;;;;;5037994;28;20206;-63
2023/04/10 10:35:23;;;;;;;3.77;3.10;;;19.30;48.40;;;;;;5036672;28;20201;-62
2023/04/10 10:37:53;;;;;;;4.27;3.50;;;19.40;49.10;;;;;;5036883;28;20249;-62
2023/04/10 10:40:39;;;;;;;3.67;3.27;;;19.60;48.80;;;;;;5037080;28;20202;-63
2023/04/10 10:43:19;;;;;;;3.80;3.17;;;19.70;48.70;;;;;;5042039;28;20210;-62
2023/04/10 10:45:50;;;;;;;3.80;3.10;;;19.80;47.20;;;;;;5035695;28;20217;-63
2023/04/10 10:48:17;;;;;;;3.43;3.00;;;19.90;47.30;;;;;;5042949;28;20215;-62
2023/04/10 10:51:04;;;;;;;3.67;3.17;;;20.00;47.40;;;;;;5036642;28;20263;-62
2023/04/10 10:53:41;;;;;;;4.90;2.83;;;20.10;49.80;;;;;;5036206;28;20203;-62
2023/04/10 10:56:24;;;;;;;4.97;3.23;;;20.10;48.00;;;;;;5035979;28;20711;-63
2023/04/10 10:58:58;;;;;;;3.77;2.83;;;20.30;48.40;;;;;;5036914;28;20203;-62
2023/04/10 11:01:25;;;;;;;5.17;3.20;;;20.30;47.90;;;;;;5036953;28;20207;-62
2023/04/10 11:03:52;;;;;;;3.83;3.00;;;20.30;46.80;;;;;;5036116;28;20195;-63
2023/04/10 11:06:21;;;;;;;4.37;3.30;;;20.40;46.80;;;;;;5034882;28;20542;-63
2023/04/10 11:08:51;;;;;;;4.13;3.73;;;20.30;46.80;;;;;;5033525;28;20283;-63
2023/04/10 11:11:23;;;;;;;3.83;3.20;;;20.40;45.70;;;;;;5037761;28;20203;-63
2023/04/10 11:13:56;;;;;;;3.83;2.87;;;20.40;45.80;;;;;;5030358;28;20202;-63
2023/04/10 11:16:40;;;;;;;2.83;2.57;;;20.50;45.90;;;;;;5041352;28;20213;-63
2023/04/10 11:19:11;;;;;;;3.93;2.60;;;20.70;45.80;;;;;;5034360;28;20571;-63
2023/04/10 11:22:03;;;;;;;3.20;2.53;;;20.90;45.10;;;;;;5038382;28;20556;-63
2023/04/10 11:24:51;;;;;;;2.53;2.33;;;21.00;43.90;;;;;;5034543;28;20239;-63
2023/04/10 11:27:41;;;;;;;3.13;2.80;;;21.00;43.80;;;;;;5040597;28;20210;-63
2023/04/10 11:30:31;;;;;;;3.03;2.77;;;20.90;42.70;;;;;;5034927;28;20214;-63
2023/04/10 11:33:00;;;;;;;4.67;2.63;;;20.70;43.10;;;;;;5038200;28;20226;-63
2023/04/10 11:35:27;;;;;;;3.73;2.57;;;20.50;44.90;;;;;;5034180;28;20203;-63
2023/04/10 11:38:15;;;;;;;3.73;2.70;;;20.50;43.70;;;;;;5039899;28;20296;-64
2023/04/10 11:40:56;;;;;;;3.10;2.47;;;20.50;44.70;;;;;;5037230;28;20207;-63
2023/04/10 11:43:24;;;;;;;3.60;2.93;;;20.50;44.30;;;;;;5036460;28;20262;-63
2023/04/10 11:45:58;;;;;;;3.30;3.00;;;20.60;43.50;;;;;;5036838;28;20210;-63
2023/04/10 11:48:28;;;;;;;3.37;2.40;;;20.60;42.70;;;;;;5034452;28;20281;-63
2023/04/10 11:50:55;;;;;;;2.50;2.30;;;20.60;43.40;;;;;;5034624;28;20202;-63
2023/04/10 11:53:22;;;;;;;3.00;2.70;;;20.70;43.90;;;;;;5036206;28;20203;-62
2023/04/10 11:55:49;;;;;;;2.83;2.63;;;20.80;44.60;;;;;;5031828;28;20203;-62
2023/04/10 11:58:26;;;;;;;3.10;2.50;;;20.90;44.20;;;;;;5040283;28;20206;-63
2023/04/10 12:01:04;;;;;;;3.73;3.20;;;21.00;43.50;;;;;;5038154;28;20214;-62
2023/04/10 12:03:32;;;;;;;3.13;2.80;;;21.00;41.50;;;;;;5036735;28;20294;-63
2023/04/10 12:05:59;;;;;;;4.40;2.40;;;21.00;42.80;;;;;;5030394;28;20675;-63
2023/04/10 12:08:34;;;;;;;2.93;2.33;;;21.10;43.60;;;;;;5031437;28;20187;-63
2023/04/10 12:11:02;;;;;;;3.87;2.67;;;21.20;43.20;;;;;;5028139;28;20209;-63
2023/04/10 12:13:31;;;;;;;2.87;2.40;;;21.20;43.00;;;;;;5033156;28;20590;-63
2023/04/10 12:16:00;;;;;;;3.50;2.23;;;21.20;43.40;;;;;;5033465;28;20205;-63
2023/04/10 12:18:29;;;;;;;2.97;2.67;;;21.40;43.00;;;;;;5029975;28;20239;-63
2023/04/10 12:20:58;;;;;;;3.80;2.73;;;21.50;41.50;;;;;;5043977;28;20213;-63
2023/04/10 12:23:27;;;;;;;3.20;2.80;;;21.40;40.50;;;;;;5034702;28;20214;-63
2023/04/10 12:26:11;;;;;;;3.80;3.40;;;21.40;42.00;;;;;;5036878;28;20225;-63
2023/04/10 12:28:40;;;;;;;4.20;2.80;;;21.30;42.20;;;;;;5034634;28;20206;-63
2023/04/10 12:31:08;;;;;;;2.87;2.60;;;21.30;41.90;;;;;;5040980;28;20195;-63
2023/04/10 12:33:36;;;;;;;3.03;2.83;;;21.20;43.30;;;;;;5041053;28;20280;-63
2023/04/10 12:36:03;;;;;;;4.97;3.03;;;21.30;42.80;;;;;;5040662;28;20202;-63
2023/04/10 12:38:36;;;;;;;3.33;2.87;;;21.20;42.40;;;;;;5039184;28;20198;-63
2023/04/10 12:41:03;;;;;;;4.23;2.77;;;21.10;40.70;;;;;;5039664;28;20206;-63
2023/04/10 12:43:34;;;;;;;3.43;3.13;;;21.00;41.40;;;;;;5041616;28;20692;-64
2023/04/10 12:46:02;;;;;;;10.47;3.50;;;20.90;41.10;;;;;;5042059;28;20520;-63
2023/04/10 12:48:29;;;;;;;3.63;3.13;;;20.90;41.50;;;;;;5045245;28;20199;-63
2023/04/10 12:50:56;;;;;;;3.67;3.37;;;20.80;41.40;;;;;;5038955;28;20210;-63
2023/04/10 12:53:24;;;;;;;3.47;3.17;;;20.70;42.10;;;;;;5033242;28;20226;-63
2023/04/10 12:55:58;;;;;;;3.33;2.93;;;20.60;41.40;;;;;;5040486;28;20195;-63
2023/04/10 12:58:29;;;;;;;3.73;2.47;;;20.50;41.90;;;;;;5039275;28;20631;-63
2023/04/10 13:01:05;;;;;;;4.40;3.03;;;20.50;43.40;;;;;;5034320;28;20324;-62
2023/04/10 13:03:32;;;;;;;3.23;2.93;;;20.60;43.80;;;;;;5039648;28;20656;-63
2023/04/10 13:06:00;;;;;;;8.20;2.50;;;20.70;43.50;;;;;;5035903;28;20327;-64
2023/04/10 13:08:27;;;;;;;23.33;4.40;;;20.80;43.10;;;;;;5041540;28;20579;-63
2023/04/10 13:10:54;;;;;;;4.10;2.50;;;21.00;43.20;;;;;;5032535;28;20333;-63
2023/04/10 13:13:21;;;;;;;3.10;2.80;;;21.10;42.30;;;;;;5040389;28;20199;-63